Time;durP1;ratioP1;P1;durP2;ratioP2;P2;SDS_P1;SDS_P2;PMS_P1;PMS_P2;Temp;Humidity;BMP_temperature;BMP_pressure;BME280_temperature;BME280_humidity;BME280_pressure;Samples;Min_cycle;Max_cycle;Signal;HPM_P1;HPM_P2
2021/07/23 00:00:14;;;;;;;13.65;8.02;;;;;;;14.23;80.98;102261.47;6127870;23;20002;-79
2021/07/23 00:02:40;;;;;;;14.57;8.32;;;;;;;14.15;81.08;102261.28;6127534;23;20089;-78
2021/07/23 00:05:25;;;;;;;19.80;9.15;;;;;;;14.07;81.79;102252.25;6127778;23;20048;-79
2021/07/23 00:07:51;;;;;;;16.15;7.85;;;;;;;14.05;81.46;102256.59;6127697;23;20006;-81
2021/07/23 00:10:16;;;;;;;15.90;8.65;;;;;;;14.02;81.75;102253.88;6127379;23;20013;-79
2021/07/23 00:12:42;;;;;;;15.68;7.75;;;;;;;14.04;81.58;102252.19;6127667;23;20093;-81
2021/07/23 00:15:27;;;;;;;14.80;7.93;;;;;;;14.06;81.67;102242.53;6128242;23;20001;-79
2021/07/23 00:17:53;;;;;;;15.18;8.63;;;;;;;14.08;81.67;102250.50;6127168;23;20105;-79
2021/07/23 00:20:18;;;;;;;14.50;8.32;;;;;;;14.05;81.96;102251.31;6101781;23;20494;-80
2021/07/23 00:22:44;;;;;;;15.00;8.27;;;;;;;14.05;81.64;102251.31;6127802;23;20014;-79
2021/07/23 00:25:09;;;;;;;14.90;8.63;;;;;;;14.06;81.71;102255.75;6127579;23;20018;-78
2021/07/23 00:27:35;;;;;;;15.93;8.95;;;;;;;14.03;82.71;102254.81;6127777;23;20002;-80
2021/07/23 00:30:01;;;;;;;15.77;8.98;;;;;;;14.02;81.94;102245.94;6128593;23;20002;-78
2021/07/23 00:32:26;;;;;;;13.70;8.40;;;;;;;14.01;82.13;102249.44;6127935;23;20417;-78
2021/07/23 00:34:52;;;;;;;16.35;8.32;;;;;;;13.98;82.45;102259.97;6128615;23;20013;-81
2021/07/23 00:37:17;;;;;;;16.00;8.25;;;;;;;13.94;82.76;102258.09;6128213;23;20002;-77
2021/07/23 00:39:42;;;;;;;15.35;8.63;;;;;;;13.93;82.55;102256.28;6128042;23;20006;-81
2021/07/23 00:42:08;;;;;;;15.15;8.38;;;;;;;13.92;82.58;102254.53;6128730;23;20006;-78
2021/07/23 00:44:34;;;;;;;16.85;8.32;;;;;;;13.90;82.92;102253.59;6127729;23;20021;-79
2021/07/23 00:47:00;;;;;;;15.27;7.57;;;;;;;13.83;82.95;102250.75;6128294;23;20013;-79
2021/07/23 00:49:25;;;;;;;16.70;9.65;;;;;;;13.81;83.20;102255.13;6127922;23;20369;-80
2021/07/23 00:51:51;;;;;;;17.23;9.05;;;;;;;13.80;83.17;102255.09;6127955;23;20458;-79
2021/07/23 00:54:36;;;;;;;17.40;9.38;;;;;;;13.81;83.42;102251.63;6128202;23;20448;-79
2021/07/23 00:57:02;;;;;;;14.70;9.05;;;;;;;13.80;83.12;102257.75;6127475;23;20437;-79
2021/07/23 00:59:27;;;;;;;18.98;9.68;;;;;;;13.79;83.69;102256.84;6128265;23;20010;-79
2021/07/23 01:01:53;;;;;;;16.23;8.77;;;;;;;13.80;83.33;102261.28;6127829;23;20029;-79
2021/07/23 01:04:19;;;;;;;17.80;10.57;;;;;;;13.78;83.81;102249.78;6127817;23;20045;-80
2021/07/23 01:07:04;;;;;;;17.30;10.27;;;;;;;13.81;83.54;102254.25;6128134;23;20321;-79
2021/07/23 01:09:30;;;;;;;17.40;9.48;;;;;;;13.81;83.31;102247.19;6127363;23;20005;-79
2021/07/23 01:11:57;;;;;;;17.83;9.85;;;;;;;13.82;83.52;102253.38;6127708;23;20021;-78
2021/07/23 01:14:22;;;;;;;14.43;9.15;;;;;;;13.79;83.98;102248.03;6128022;23;20017;-79
2021/07/23 01:16:48;;;;;;;17.00;9.20;;;;;;;13.79;83.50;102254.19;6127678;23;20307;-80
2021/07/23 01:19:59;;;;;;;18.65;10.20;;;;;;;13.78;83.74;102251.50;6126785;23;20002;-79
2021/07/23 01:22:27;;;;;;;19.35;9.45;;;;;;;13.81;83.76;102252.50;6125914;23;20323;-81
2021/07/23 01:24:54;;;;;;;20.92;10.27;;;;;;;13.78;83.81;102248.88;6126860;23;20333;-78
2021/07/23 01:27:20;;;;;;;20.35;9.55;;;;;;;13.75;84.12;102252.31;6127551;23;20009;-78
2021/07/23 01:29:46;;;;;;;18.02;10.55;;;;;;;13.74;84.07;102245.25;6126999;23;20006;-78
2021/07/23 01:32:32;;;;;;;17.73;9.80;;;;;;;13.73;83.84;102246.13;6126733;23;20006;-78
2021/07/23 01:34:57;;;;;;;24.42;10.25;;;;;;;13.72;84.29;102246.97;6128466;23;20449;-78
2021/07/23 01:38:02;;;;;;;21.88;10.23;;;;;;;13.72;84.23;102249.59;6128547;23;20073;-80
2021/07/23 01:40:28;;;;;;;22.65;10.30;;;;;;;13.68;84.63;102255.66;6127871;23;20009;-76
2021/07/23 01:42:53;;;;;;;19.15;10.38;;;;;;;13.64;84.43;102254.69;6129333;23;20425;-79
2021/07/23 01:45:19;;;;;;;18.35;10.30;;;;;;;13.66;84.59;102257.41;6128821;23;20006;-79
2021/07/23 01:47:44;;;;;;;22.08;11.07;;;;;;;13.66;84.97;102257.41;6128647;23;20014;-78
2021/07/23 01:50:10;;;;;;;18.52;11.10;;;;;;;13.63;84.87;102252.00;6128743;23;20472;-79
2021/07/23 01:52:36;;;;;;;23.40;10.95;;;;;;;13.58;85.16;102259.81;6129419;23;20021;-80
2021/07/23 01:55:21;;;;;;;22.25;11.10;;;;;;;13.57;85.22;102262.44;6129214;23;20441;-79
2021/07/23 01:57:47;;;;;;;27.52;13.18;;;;;;;13.52;85.36;102253.47;6128705;23;20037;-80
2021/07/23 02:00:13;;;;;;;26.52;12.38;;;;;;;13.49;85.59;102255.16;6129234;23;20421;-78
2021/07/23 02:02:38;;;;;;;24.20;11.57;;;;;;;13.46;85.62;102249.81;6129680;23;20009;-80
2021/07/23 02:05:24;;;;;;;23.40;11.32;;;;;;;13.46;85.54;102248.91;6129073;23;20010;-80
2021/07/23 02:07:49;;;;;;;24.00;11.48;;;;;;;13.45;85.40;102252.41;6128684;23;20006;-77
2021/07/23 02:10:15;;;;;;;22.85;12.45;;;;;;;13.45;85.33;102250.66;6129316;23;20010;-79
2021/07/23 02:12:42;;;;;;;22.67;11.45;;;;;;;13.43;85.74;102249.72;6129529;23;20002;-80
2021/07/23 02:15:27;;;;;;;20.83;12.02;;;;;;;13.41;85.80;102243.50;6129629;23;20381;-78
2021/07/23 02:17:52;;;;;;;22.58;11.70;;;;;;;13.38;85.94;102240.78;6129464;23;20077;-80
2021/07/23 02:20:18;;;;;;;30.55;12.63;;;;;;;13.32;86.42;102243.19;6129506;23;20044;-80
2021/07/23 02:22:44;;;;;;;27.15;12.98;;;;;;;13.30;86.16;102247.56;6128326;23;20084;-80
2021/07/23 02:25:10;;;;;;;26.20;11.68;;;;;;;13.24;86.41;102244.72;6129004;23;20230;-78
2021/07/23 02:27:35;;;;;;;22.33;12.73;;;;;;;13.19;86.77;102238.44;6129576;23;20010;-76
2021/07/23 02:30:01;;;;;;;20.15;11.85;;;;;;;13.16;86.83;102240.13;6129384;23;20064;-79
2021/07/23 02:32:27;;;;;;;25.90;12.30;;;;;;;13.12;86.62;102237.38;6129469;23;20029;-78
2021/07/23 02:34:53;;;;;;;23.02;12.65;;;;;;;13.08;87.38;102235.50;6129409;23;20006;-78
2021/07/23 02:37:18;;;;;;;24.48;13.07;;;;;;;13.06;86.95;102238.09;6129230;23;20500;-78
2021/07/23 02:39:43;;;;;;;23.00;12.52;;;;;;;13.01;87.09;102229.13;6128678;23;20021;-79
2021/07/23 02:42:09;;;;;;;23.52;12.20;;;;;;;12.97;87.19;102233.44;6129143;23;20014;-79
2021/07/23 02:44:54;;;;;;;22.55;11.68;;;;;;;12.93;87.34;102228.91;6128771;23;20457;-79
2021/07/23 02:47:19;;;;;;;27.85;12.73;;;;;;;12.88;87.29;102237.56;6128592;23;20010;-77
2021/07/23 02:49:45;;;;;;;21.20;12.18;;;;;;;12.84;87.61;102235.66;6128343;23;20010;-77
2021/07/23 02:52:10;;;;;;;22.80;11.80;;;;;;;12.81;87.52;102231.19;6128676;23;20017;-78
2021/07/23 02:54:36;;;;;;;22.45;11.63;;;;;;;12.77;87.58;102226.66;6128379;23;20422;-80
2021/07/23 02:57:01;;;;;;;22.55;11.93;;;;;;;12.73;87.69;102222.16;6128744;23;20068;-79
2021/07/23 02:59:26;;;;;;;24.63;12.00;;;;;;;12.69;88.03;102230.81;6128324;23;20013;-77
2021/07/23 03:01:52;;;;;;;27.25;13.13;;;;;;;12.65;88.43;102227.19;6127882;23;20332;-79
2021/07/23 03:04:17;;;;;;;23.80;12.70;;;;;;;12.61;88.39;102226.19;6128433;23;20008;-79
2021/07/23 03:07:03;;;;;;;23.00;12.20;;;;;;;12.61;88.54;102222.66;6102376;23;20010;-79
2021/07/23 03:09:28;;;;;;;29.42;12.70;;;;;;;12.58;88.69;102212.91;6127836;23;20065;-77
2021/07/23 03:11:53;;;;;;;26.00;12.75;;;;;;;12.60;88.72;102212.94;6128253;23;20002;-77
2021/07/23 03:14:19;;;;;;;28.65;13.63;;;;;;;12.62;88.96;102211.25;6128384;23;20129;-79
2021/07/23 03:16:44;;;;;;;28.23;13.35;;;;;;;12.60;88.91;102200.66;6128096;23;20429;-76
2021/07/23 03:19:10;;;;;;;25.55;12.30;;;;;;;12.62;89.00;102205.97;6128104;23;20440;-79
2021/07/23 03:21:35;;;;;;;28.38;13.80;;;;;;;12.61;88.83;102197.13;6127862;23;20026;-81
2021/07/23 03:24:20;;;;;;;24.45;13.27;;;;;;;12.62;88.73;102200.69;6128407;23;20417;-79
2021/07/23 03:26:46;;;;;;;27.05;13.23;;;;;;;12.61;88.71;102196.25;6128190;23;20310;-80
2021/07/23 03:29:11;;;;;;;26.27;13.00;;;;;;;12.60;88.61;102191.81;6128373;23;20028;-78
2021/07/23 03:31:57;;;;;;;25.50;13.52;;;;;;;12.58;88.78;102191.78;6127845;23;20323;-79
2021/07/23 03:34:22;;;;;;;24.80;12.75;;;;;;;12.59;88.81;102196.22;6128033;23;20093;-77
2021/07/23 03:36:48;;;;;;;28.63;14.02;;;;;;;12.60;88.98;102191.81;6127451;23;20025;-78
2021/07/23 03:39:13;;;;;;;29.42;13.35;;;;;;;12.65;89.26;102187.56;6102087;23;20449;-78
2021/07/23 03:41:39;;;;;;;27.60;14.75;;;;;;;12.69;89.64;102185.94;6127660;23;20009;-79
2021/07/23 03:44:04;;;;;;;26.23;13.52;;;;;;;12.75;90.04;102189.66;6127728;23;20002;-80
2021/07/23 03:46:29;;;;;;;27.90;14.60;;;;;;;12.82;90.06;102186.31;6127590;23;20022;-79
2021/07/23 03:48:56;;;;;;;33.10;15.20;;;;;;;12.91;90.33;102184.78;6127563;23;20013;-78
2021/07/23 03:51:22;;;;;;;25.63;13.90;;;;;;;13.01;90.20;102192.16;6127178;23;20065;-80
2021/07/23 03:53:47;;;;;;;28.40;15.40;;;;;;;13.11;90.69;102191.53;6127250;23;20002;-79
2021/07/23 03:56:13;;;;;;;30.30;15.20;;;;;;;13.23;90.77;102196.28;6126991;23;20010;-78
2021/07/23 03:58:39;;;;;;;31.90;15.80;;;;;;;13.34;90.77;102191.28;6127984;23;20009;-77
2021/07/23 04:01:05;;;;;;;27.27;14.77;;;;;;;13.43;90.53;102188.91;6128026;23;20014;-79
2021/07/23 04:03:51;;;;;;;26.30;13.93;;;;;;;13.53;90.40;102184.75;6128160;23;20010;-79
2021/07/23 04:06:36;;;;;;;24.75;13.50;;;;;;;13.64;90.12;102196.50;6128123;23;20010;-77
2021/07/23 04:09:02;;;;;;;24.35;13.25;;;;;;;13.71;89.17;102180.78;6128229;23;20013;-78
2021/07/23 04:11:37;;;;;;;22.15;12.90;;;;;;;13.81;88.92;102189.00;6127912;23;20001;-77
2021/07/23 04:14:02;;;;;;;21.77;12.75;;;;;;;13.91;88.83;102179.53;6128362;23;20005;-79
2021/07/23 04:16:47;;;;;;;27.15;13.25;;;;;;;13.99;88.90;102179.72;6127938;23;20010;-79
2021/07/23 04:19:14;;;;;;;24.60;13.45;;;;;;;14.08;89.06;102185.25;6128016;23;20037;-78
2021/07/23 04:21:39;;;;;;;31.55;14.35;;;;;;;14.14;88.49;102176.53;6127778;23;20017;-78
2021/07/23 04:24:07;;;;;;;23.38;12.80;;;;;;;14.20;88.47;102167.84;6128013;23;20006;-76
2021/07/23 04:26:34;;;;;;;21.40;11.45;;;;;;;14.28;87.99;102182.16;6128203;23;20034;-77
2021/07/23 04:29:00;;;;;;;20.02;12.13;;;;;;;14.33;87.14;102177.84;6128559;23;20013;-78
2021/07/23 04:31:28;;;;;;;20.45;12.68;;;;;;;14.38;87.20;102176.22;6127869;23;20458;-78
2021/07/23 04:33:59;;;;;;;23.02;12.95;;;;;;;14.46;86.90;102168.41;6102093;23;20029;-77
2021/07/23 04:36:46;;;;;;;20.67;12.43;;;;;;;14.52;86.63;102167.69;6127305;23;20089;-76
2021/07/23 04:39:12;;;;;;;19.98;11.60;;;;;;;14.58;86.75;102162.50;6127479;23;20030;-79
2021/07/23 04:41:40;;;;;;;20.65;12.45;;;;;;;14.63;86.22;102166.19;6128263;23;20040;-79
2021/07/23 04:44:06;;;;;;;17.88;11.35;;;;;;;14.69;85.50;102161.03;6126716;23;20009;-77
2021/07/23 04:46:51;;;;;;;19.83;11.30;;;;;;;14.77;85.79;102164.72;6127752;23;20002;-78
2021/07/23 04:49:17;;;;;;;15.52;10.40;;;;;;;14.82;86.00;102165.69;6100676;23;20021;-79
2021/07/23 04:51:42;;;;;;;15.60;8.45;;;;;;;14.88;83.79;102159.63;6127354;23;20006;-79
2021/07/23 04:54:08;;;;;;;17.48;10.05;;;;;;;14.95;83.21;102158.00;6127682;23;20049;-77
2021/07/23 04:56:33;;;;;;;16.77;10.75;;;;;;;15.02;83.79;102154.59;6127737;23;20009;-78
2021/07/23 04:58:58;;;;;;;17.15;10.52;;;;;;;15.08;84.30;102156.47;6128734;23;20025;-78
2021/07/23 05:01:24;;;;;;;16.30;9.65;;;;;;;15.11;82.64;102154.78;6127709;23;20012;-75
2021/07/23 05:03:49;;;;;;;17.55;10.35;;;;;;;15.16;83.47;102157.50;6127921;23;19998;-77
2021/07/23 05:06:15;;;;;;;18.17;9.32;;;;;;;15.22;82.68;102159.38;6127244;23;20012;-77
2021/07/23 05:08:40;;;;;;;16.13;9.13;;;;;;;15.27;82.35;102160.34;6127996;23;20012;-78
2021/07/23 05:11:28;;;;;;;11.38;7.93;;;;;;;15.31;81.59;102152.50;6129373;23;20001;-77
2021/07/23 05:14:15;;;;;;;11.55;8.40;;;;;;;15.37;80.71;102146.41;6128085;23;20425;-78
2021/07/23 05:16:40;;;;;;;13.73;8.07;;;;;;;15.40;79.95;102146.44;6129649;23;20068;-77
2021/07/23 05:19:26;;;;;;;15.45;8.50;;;;;;;15.44;80.05;102150.94;6129135;23;20002;-79
2021/07/23 05:21:52;;;;;;;10.75;7.40;;;;;;;15.49;79.56;102157.22;6129761;23;20017;-79
2021/07/23 05:24:17;;;;;;;17.13;7.82;;;;;;;15.56;79.13;102150.25;6129449;23;20014;-80
2021/07/23 05:26:43;;;;;;;10.48;7.95;;;;;;;15.60;79.46;102159.16;6128681;23;20005;-77
2021/07/23 05:29:28;;;;;;;14.60;8.43;;;;;;;15.65;78.24;102152.16;6129056;23;20006;-77
2021/07/23 05:31:53;;;;;;;9.05;7.13;;;;;;;15.70;78.31;102149.59;6128402;23;20444;-78
2021/07/23 05:34:19;;;;;;;11.68;6.93;;;;;;;15.74;77.67;102144.34;6129788;23;20006;-79
2021/07/23 05:36:45;;;;;;;11.77;6.75;;;;;;;15.75;76.61;102147.88;6129557;23;20378;-78
2021/07/23 05:39:10;;;;;;;12.75;6.30;;;;;;;15.78;76.57;102143.53;6129194;23;20041;-79
2021/07/23 05:41:35;;;;;;;11.57;7.28;;;;;;;15.81;76.23;102143.59;6128954;23;20012;-78
2021/07/23 05:44:21;;;;;;;12.63;7.35;;;;;;;15.84;76.86;102148.06;6129512;23;20021;-77
2021/07/23 05:46:46;;;;;;;12.55;6.68;;;;;;;15.89;76.35;102145.50;6129618;23;20419;-78
2021/07/23 05:49:11;;;;;;;9.20;5.78;;;;;;;15.93;76.40;102136.72;6129549;23;20081;-77
2021/07/23 05:51:37;;;;;;;8.93;5.70;;;;;;;16.00;75.12;102135.94;6129502;23;20329;-79
2021/07/23 05:54:02;;;;;;;15.30;6.82;;;;;;;16.02;75.49;102131.56;6129152;23;20085;-79
2021/07/23 05:56:27;;;;;;;8.73;6.75;;;;;;;16.04;75.74;102135.13;6128335;23;20002;-79
2021/07/23 05:58:53;;;;;;;11.55;6.63;;;;;;;16.11;75.65;102131.66;6129121;23;20328;-77
2021/07/23 06:01:18;;;;;;;16.95;8.55;;;;;;;16.18;75.49;102125.59;6129132;23;20393;-78
2021/07/23 06:03:44;;;;;;;9.50;7.50;;;;;;;16.13;75.52;102123.75;6103584;23;20028;-80
2021/07/23 06:06:09;;;;;;;12.45;7.60;;;;;;;16.21;75.66;102123.84;6129588;23;20086;-78
2021/07/23 06:08:35;;;;;;;13.45;7.50;;;;;;;16.28;75.16;102120.41;6129056;23;20005;-78
2021/07/23 06:11:23;;;;;;;15.93;6.85;;;;;;;16.35;74.95;102122.28;6128935;23;20433;-78
2021/07/23 06:13:48;;;;;;;13.95;6.68;;;;;;;16.45;75.54;102126.81;6128195;23;20016;-78
2021/07/23 06:16:14;;;;;;;11.52;6.40;;;;;;;16.50;74.19;102125.09;6129574;23;20022;-77
2021/07/23 06:18:39;;;;;;;10.68;5.82;;;;;;;16.62;73.83;102126.16;6102781;23;20068;-79
2021/07/23 06:21:28;;;;;;;14.27;6.85;;;;;;;16.73;72.63;102123.63;6128688;23;20410;-76
2021/07/23 06:23:53;;;;;;;9.27;6.10;;;;;;;16.82;73.04;102111.31;6129273;23;20496;-78
2021/07/23 06:26:19;;;;;;;16.10;7.63;;;;;;;16.83;73.48;102121.09;6128639;23;20009;-78
2021/07/23 06:28:45;;;;;;;13.18;6.28;;;;;;;16.89;72.48;102124.66;6129113;23;20061;-78
2021/07/23 06:31:35;;;;;;;10.25;6.13;;;;;;;16.91;71.92;102115.88;6129280;23;20057;-78
2021/07/23 06:34:01;;;;;;;10.32;6.35;;;;;;;16.95;71.74;102119.47;6129239;23;20014;-79
2021/07/23 06:36:27;;;;;;;11.10;6.50;;;;;;;17.00;73.84;102117.75;6128802;23;20022;-77
2021/07/23 06:38:52;;;;;;;16.52;7.38;;;;;;;17.10;71.97;102116.06;6129047;23;20059;-77
2021/07/23 06:41:17;;;;;;;14.43;7.45;;;;;;;17.08;72.84;102118.72;6129238;23;20009;-77
2021/07/23 06:44:03;;;;;;;15.88;8.27;;;;;;;17.16;73.27;102118.81;6127992;23;20417;-78
2021/07/23 06:46:28;;;;;;;10.18;6.72;;;;;;;17.19;72.80;102119.69;6128728;23;20006;-78
2021/07/23 06:48:54;;;;;;;10.20;6.95;;;;;;;17.29;72.02;102117.13;6128359;23;20053;-79
2021/07/23 06:51:19;;;;;;;10.90;6.90;;;;;;;17.46;71.13;102115.50;6129070;23;20294;-77
2021/07/23 06:53:44;;;;;;;8.50;6.38;;;;;;;17.53;71.47;102114.66;6128181;23;20006;-77
2021/07/23 06:56:10;;;;;;;10.02;5.90;;;;;;;17.68;71.08;102115.69;6128561;23;20006;-78
2021/07/23 06:58:55;;;;;;;9.82;6.22;;;;;;;17.78;70.68;102109.53;6128654;23;20010;-79
2021/07/23 07:01:20;;;;;;;12.02;6.15;;;;;;;17.83;70.66;102121.09;6128654;23;20440;-78
2021/07/23 07:03:46;;;;;;;11.95;6.35;;;;;;;17.86;70.36;102125.56;6128162;23;19998;-77
2021/07/23 07:06:11;;;;;;;11.60;6.95;;;;;;;17.78;70.72;102120.19;6128522;23;20012;-79
2021/07/23 07:08:56;;;;;;;9.18;6.72;;;;;;;17.76;72.21;102132.59;6128773;23;20013;-78
2021/07/23 07:11:22;;;;;;;11.07;5.68;;;;;;;17.75;70.73;102133.47;6127944;23;20002;-79
2021/07/23 07:13:47;;;;;;;9.63;5.68;;;;;;;17.76;72.76;102140.59;6128353;23;20383;-77
2021/07/23 07:16:12;;;;;;;9.68;6.22;;;;;;;17.81;71.90;102138.84;6128614;23;20018;-77
2021/07/23 07:18:38;;;;;;;8.80;5.50;;;;;;;17.81;72.04;102137.94;6129799;23;20008;-76
2021/07/23 07:21:05;;;;;;;9.93;5.95;;;;;;;17.78;71.36;102133.50;6128541;23;20358;-77
2021/07/23 07:23:31;;;;;;;10.32;6.20;;;;;;;17.76;70.90;102137.94;6128426;23;20010;-78
2021/07/23 07:25:56;;;;;;;11.70;6.57;;;;;;;17.78;71.23;102133.50;6128335;23;20414;-77
2021/07/23 07:28:22;;;;;;;8.15;6.45;;;;;;;17.80;71.69;102142.41;6128109;23;20025;-79
2021/07/23 07:30:47;;;;;;;9.55;6.60;;;;;;;17.81;71.42;102144.19;6128617;23;20081;-79
2021/07/23 07:33:13;;;;;;;9.98;6.50;;;;;;;17.89;72.16;102146.00;6128702;23;20419;-77
2021/07/23 07:35:42;;;;;;;9.73;5.80;;;;;;;17.94;70.77;102146.97;6128588;23;20006;-78
2021/07/23 07:38:07;;;;;;;8.55;5.80;;;;;;;17.94;70.54;102144.31;6129753;23;20013;-78
2021/07/23 07:40:33;;;;;;;9.10;6.07;;;;;;;17.99;70.56;102142.56;6128344;23;20005;-76
2021/07/23 07:42:58;;;;;;;7.88;5.50;;;;;;;18.08;69.41;102144.38;6128253;23;20013;-78
2021/07/23 07:45:23;;;;;;;8.27;5.38;;;;;;;18.15;70.11;102138.19;6128991;23;20006;-78
2021/07/23 07:47:50;;;;;;;13.15;5.78;;;;;;;18.19;69.25;102140.00;6128239;23;20065;-78
2021/07/23 07:50:16;;;;;;;10.60;5.60;;;;;;;18.17;68.72;102137.31;6128251;23;20033;-78
2021/07/23 07:52:41;;;;;;;10.10;5.88;;;;;;;18.13;68.75;102139.97;6127723;23;20321;-77
2021/07/23 07:55:28;;;;;;;13.20;5.78;;;;;;;18.18;70.00;102147.13;6128162;23;20009;-78
2021/07/23 07:57:53;;;;;;;7.95;5.53;;;;;;;18.20;70.39;102144.44;6127853;23;20074;-78
2021/07/23 08:00:19;;;;;;;8.77;6.25;;;;;;;18.23;69.29;102140.91;6127645;23;20423;-77
2021/07/23 08:02:46;;;;;;;8.35;6.03;;;;;;;18.17;69.22;102132.00;6127660;23;20081;-78
2021/07/23 08:05:14;;;;;;;10.75;5.90;;;;;;;18.36;70.76;102129.44;6127946;23;20017;-77
2021/07/23 08:07:40;;;;;;;8.68;6.20;;;;;;;18.45;68.99;102126.81;6128144;23;20081;-79
2021/07/23 08:10:08;;;;;;;17.77;5.72;;;;;;;18.62;69.51;102126.88;6102431;23;20033;-76
2021/07/23 08:12:34;;;;;;;10.00;6.22;;;;;;;18.75;68.11;102129.63;6128458;23;20002;-79
2021/07/23 08:14:59;;;;;;;11.40;6.28;;;;;;;18.78;67.19;102119.81;6128882;23;20454;-78
2021/07/23 08:17:26;;;;;;;9.55;5.38;;;;;;;18.81;67.65;102119.81;6128610;23;20014;-78
2021/07/23 08:19:51;;;;;;;8.60;5.15;;;;;;;18.97;68.76;102123.47;6128322;23;20141;-79
2021/07/23 08:22:17;;;;;;;10.02;6.03;;;;;;;19.05;67.32;102123.47;6127239;23;20029;-79
2021/07/23 08:25:03;;;;;;;7.55;5.53;;;;;;;19.01;65.79;102121.69;6127928;23;20438;-79
2021/07/23 08:27:30;;;;;;;14.00;5.82;;;;;;;18.99;66.03;102123.47;6128128;23;20009;-78
2021/07/23 08:29:55;;;;;;;13.32;6.15;;;;;;;18.83;66.37;102126.06;6127816;23;20065;-79
2021/07/23 08:32:21;;;;;;;10.25;5.72;;;;;;;18.85;66.16;102126.94;6127753;23;20006;-78
2021/07/23 08:34:47;;;;;;;11.45;5.93;;;;;;;18.92;66.33;102127.88;6128260;23;20018;-79
2021/07/23 08:37:12;;;;;;;7.97;5.75;;;;;;;19.04;66.26;102127.03;6128124;23;20017;-79
2021/07/23 08:39:58;;;;;;;8.07;5.25;;;;;;;19.10;65.73;102120.81;6127500;23;20014;-79
2021/07/23 08:42:31;;;;;;;9.90;5.80;;;;;;;19.21;66.62;102119.94;6127912;23;20092;-80
2021/07/23 08:45:16;;;;;;;12.18;5.82;;;;;;;19.27;64.99;102115.50;6128410;23;20085;-80
2021/07/23 08:47:42;;;;;;;9.10;5.88;;;;;;;19.32;66.70;102108.41;6127665;23;20382;-77
2021/07/23 08:50:27;;;;;;;9.35;6.40;;;;;;;19.27;64.98;102112.84;6128720;23;20013;-78
2021/07/23 08:52:55;;;;;;;11.07;6.25;;;;;;;19.44;63.92;102103.06;6127547;23;20076;-79
2021/07/23 08:55:22;;;;;;;9.40;6.13;;;;;;;19.52;64.21;102109.28;6128131;23;20018;-78
2021/07/23 08:58:28;;;;;;;9.18;6.60;;;;;;;19.38;64.32;102105.72;6127789;23;20014;-77
2021/07/23 09:01:00;;;;;;;9.07;6.35;;;;;;;19.33;66.13;102107.50;6127596;23;20033;-76
2021/07/23 09:03:46;;;;;;;8.60;5.97;;;;;;;19.59;66.25;102098.59;6127439;23;20006;-77
2021/07/23 09:06:15;;;;;;;10.27;5.78;;;;;;;19.84;65.24;102086.13;6127090;23;20426;-78
2021/07/23 09:09:05;;;;;;;13.30;6.50;;;;;;;19.97;62.90;102076.31;6127861;23;20013;-79
2021/07/23 09:11:30;;;;;;;12.32;6.28;;;;;;;20.04;63.33;102083.41;6128132;23;20054;-79
2021/07/23 09:14:12;;;;;;;8.05;6.55;;;;;;;19.97;63.83;102073.66;6128402;23;20003;-77
2021/07/23 09:16:37;;;;;;;9.77;6.68;;;;;;;20.02;64.03;102080.75;6126919;23;20430;-79
2021/07/23 09:19:10;;;;;;;11.85;6.65;;;;;;;20.38;64.95;102075.25;6128106;23;20009;-77
2021/07/23 09:21:57;;;;;;;11.65;5.90;;;;;;;20.59;61.94;102066.25;6127726;23;20018;-76
2021/07/23 09:24:23;;;;;;;13.80;5.88;;;;;;;20.79;60.30;102055.44;6127046;23;20014;-80
2021/07/23 09:26:49;;;;;;;9.32;6.05;;;;;;;20.92;61.42;102072.31;6127797;23;20493;-79
2021/07/23 09:29:14;;;;;;;11.02;6.15;;;;;;;20.58;60.77;102061.81;6127488;23;20009;-78
2021/07/23 09:31:59;;;;;;;7.28;5.93;;;;;;;20.51;64.49;102066.28;6127136;23;20014;-78
2021/07/23 09:34:30;;;;;;;12.13;6.38;;;;;;;20.91;61.01;102051.81;6129083;23;20002;-78
2021/07/23 09:37:09;;;;;;;9.68;6.18;;;;;;;21.38;59.64;102049.66;6128021;23;20017;-78
2021/07/23 09:39:34;;;;;;;11.82;7.30;;;;;;;21.56;59.16;102049.50;6128484;23;20014;-77
2021/07/23 09:42:40;;;;;;;10.82;7.03;;;;;;;21.42;58.49;102040.69;6101788;23;20429;-77
2021/07/23 09:45:05;;;;;;;9.55;5.95;;;;;;;21.45;58.71;102034.41;6128036;23;20005;-79
2021/07/23 09:47:31;;;;;;;9.88;5.50;;;;;;;21.55;58.70;102037.03;6128724;23;20014;-80
2021/07/23 09:50:16;;;;;;;6.68;5.55;;;;;;;21.47;57.67;102044.19;6127697;23;20091;-80
2021/07/23 09:52:42;;;;;;;10.93;7.03;;;;;;;21.27;58.72;102040.81;6128366;23;20010;-79
2021/07/23 09:55:08;;;;;;;11.57;6.38;;;;;;;21.67;58.53;102037.78;6129672;23;20057;-79
2021/07/23 09:57:34;;;;;;;10.50;6.55;;;;;;;21.86;57.45;102036.66;6130379;23;20068;-80
2021/07/23 10:00:06;;;;;;;8.18;5.50;;;;;;;21.86;59.83;102047.38;6130690;23;20006;-78
2021/07/23 10:02:41;;;;;;;12.25;5.40;;;;;;;21.80;56.62;102046.56;6129904;23;20001;-80
2021/07/23 10:05:30;;;;;;;11.00;6.47;;;;;;;21.35;57.70;102046.97;6130411;23;20062;-79
2021/07/23 10:08:21;;;;;;;16.92;5.72;;;;;;;21.62;57.18;102053.88;6130021;23;20425;-79
2021/07/23 10:11:29;;;;;;;10.20;5.45;;;;;;;21.22;58.20;102060.47;6129322;23;20013;-81
2021/07/23 10:13:58;;;;;;;10.23;5.70;;;;;;;21.20;58.02;102048.91;6129844;23;20006;-79
2021/07/23 10:16:44;;;;;;;8.20;6.00;;;;;;;20.98;59.65;102049.97;6130811;23;20002;-80
2021/07/23 10:19:12;;;;;;;10.18;6.55;;;;;;;21.07;58.79;102049.91;6129925;23;20013;-80
2021/07/23 10:21:37;;;;;;;9.10;6.30;;;;;;;20.97;58.51;102045.50;6129742;23;20018;-79
2021/07/23 10:24:04;;;;;;;13.13;6.95;;;;;;;21.16;57.76;102028.44;6129766;23;20010;-81
2021/07/23 10:26:30;;;;;;;11.52;5.82;;;;;;;21.19;58.72;102031.06;6129174;23;20330;-80
2021/07/23 10:29:16;;;;;;;15.32;6.10;;;;;;;21.16;57.47;102033.78;6128446;23;20082;-79
2021/07/23 10:31:43;;;;;;;10.93;5.85;;;;;;;20.94;58.39;102037.53;6128759;23;20040;-80
2021/07/23 10:34:10;;;;;;;14.38;5.80;;;;;;;20.97;62.40;102043.75;6128972;23;20006;-79
2021/07/23 10:36:59;;;;;;;12.55;6.50;;;;;;;20.97;59.00;102032.13;6129259;23;20441;-80
2021/07/23 10:39:45;;;;;;;9.88;6.43;;;;;;;21.33;59.21;102030.06;6128968;23;20044;-79
2021/07/23 10:42:25;;;;;;;11.02;6.75;;;;;;;21.73;56.91;102016.28;6128751;23;20010;-80
2021/07/23 10:44:54;;;;;;;9.48;6.53;;;;;;;21.86;58.37;102019.72;6129171;23;20350;-80
2021/07/23 10:47:36;;;;;;;8.10;6.00;;;;;;;21.59;57.11;102010.19;6128188;23;20137;-80
2021/07/23 10:50:04;;;;;;;11.20;6.60;;;;;;;21.45;57.10;102008.50;6128992;23;20010;-80
2021/07/23 10:52:36;;;;;;;8.90;6.25;;;;;;;21.52;57.07;101999.50;6128406;23;20016;-79
2021/07/23 10:55:28;;;;;;;11.73;5.95;;;;;;;21.38;58.01;101990.75;6129522;23;20029;-79
2021/07/23 10:58:08;;;;;;;10.75;6.75;;;;;;;21.73;57.88;101994.84;6129544;23;20425;-80
2021/07/23 11:01:06;;;;;;;9.55;6.10;;;;;;;22.48;53.67;101979.59;6129334;23;20385;-78
2021/07/23 11:03:39;;;;;;;9.40;5.88;;;;;;;22.69;54.44;101973.03;6064391;23;20421;-81
2021/07/23 11:06:38;;;;;;;9.13;6.10;;;;;;;23.33;53.16;101959.41;6128810;23;20029;-80
2021/07/23 11:09:04;;;;;;;8.45;5.28;;;;;;;23.76;50.74;101946.03;6127751;23;20018;-80
2021/07/23 11:11:50;;;;;;;16.90;5.47;;;;;;;24.24;51.31;101946.78;6128426;23;20010;-81
2021/07/23 11:14:36;;;;;;;11.88;6.20;;;;;;;24.05;50.54;101950.78;6127600;23;20005;-80
2021/07/23 11:17:03;;;;;;;12.20;5.40;;;;;;;24.26;50.49;101943.19;6128150;23;20009;-79
2021/07/23 11:19:28;;;;;;;19.95;5.68;;;;;;;24.43;49.40;101943.66;6127928;23;20009;-78
2021/07/23 11:21:54;;;;;;;12.57;5.53;;;;;;;24.23;49.38;101942.31;6128047;23;20014;-80
2021/07/23 11:24:19;;;;;;;13.40;5.45;;;;;;;23.84;51.50;101941.38;6127528;23;20433;-80
2021/07/23 11:26:55;;;;;;;6.63;4.88;;;;;;;23.84;50.20;101942.25;6129767;23;20077;-79
2021/07/23 11:29:37;;;;;;;7.97;5.13;;;;;;;23.62;49.60;101930.19;6129363;23;20025;-81
2021/07/23 11:32:23;;;;;;;13.50;5.73;;;;;;;23.21;51.08;101941.72;6129291;23;20067;-80